Sikesville, Alabama
Current Conditions -  °F | °C
As of 8:35 AM on Thursday 23 Oct 2014 (Local Time) from KLGC Reporting Station
Clear Clear  
Wind Chill: 52°   Ceiling: Unl
Heat Index: 52°   Visibility: 10mi
Dew Point: 46°   Wind: 3mph
Humidity: 81%   Direction: 30°NNE
Pressure: 30.16"   Gusts: NA
Location:  33.1661°N, 85.5111°W
Report Text: KLGC 231335Z AUTO 03003KT 10SM CLR 11/08 A3016 RMK AO2 T01100079
Loading
Personal Weather Stations






























Interactive Weather Map
Tropical Storm Tracking
New forecast layout! Learn more

10-Day Weather Forecast

Advertisements
Track Severe Weather on mobile